Time;durP1;ratioP1;P1;durP2;ratioP2;P2;SDS_P1;SDS_P2;PMS_P1;PMS_P2;Temp;Humidity;BMP_temperature;BMP_pressure;BME280_temperature;BME280_humidity;BME280_pressure;Samples;Min_cycle;Max_cycle;Signal;HPM_P1;HPM_P2
2022/08/14 00:00:24;;;;;;;20.77;8.55;;;;;;;19.41;72.90;100981.88;5044822;28;20030;-68
2022/08/14 00:02:49;;;;;;;18.40;8.23;;;;;;;19.39;73.13;100978.34;5046523;28;20115;-68
2022/08/14 00:05:18;;;;;;;21.48;8.23;;;;;;;19.25;74.10;100975.22;5043913;28;20025;-68
2022/08/14 00:07:44;;;;;;;19.80;8.95;;;;;;;19.11;74.65;100976.50;5039874;28;20112;-68
2022/08/14 00:10:12;;;;;;;21.52;8.50;;;;;;;19.11;74.57;100978.31;5047023;28;20112;-68
2022/08/14 00:12:43;;;;;;;19.40;8.57;;;;;;;19.00;75.03;100975.94;5044255;28;20065;-68
2022/08/14 00:15:14;;;;;;;20.27;8.85;;;;;;;18.96;75.66;100960.84;5045404;28;20029;-68
2022/08/14 00:17:40;;;;;;;20.85;9.18;;;;;;;18.80;76.07;100963.97;5043482;28;20079;-69
2022/08/14 00:20:07;;;;;;;19.58;9.00;;;;;;;18.80;76.01;100961.28;5045006;28;20064;-69
2022/08/14 00:22:33;;;;;;;20.30;9.07;;;;;;;18.64;76.33;100955.47;5044495;28;20494;-69
2022/08/14 00:24:59;;;;;;;20.75;9.25;;;;;;;18.55;76.81;100949.47;5045223;28;20098;-70
2022/08/14 00:27:24;;;;;;;19.40;9.73;;;;;;;18.57;77.02;100955.69;5045816;28;20028;-69
2022/08/14 00:29:49;;;;;;;20.73;11.70;;;;;;;18.48;77.14;100946.13;5043603;28;20132;-68
2022/08/14 00:32:15;;;;;;;20.73;10.32;;;;;;;18.53;77.69;100946.84;5046537;28;20460;-68
2022/08/14 00:34:40;;;;;;;21.35;10.88;;;;;;;18.58;77.26;100944.03;5043756;28;20028;-70
2022/08/14 00:37:05;;;;;;;22.33;10.90;;;;;;;18.55;77.64;100938.78;5045726;28;20080;-70
2022/08/14 00:39:31;;;;;;;21.08;11.00;;;;;;;18.69;77.06;100941.94;5044461;28;20450;-70
2022/08/14 00:41:57;;;;;;;20.95;11.68;;;;;;;18.67;76.82;100932.19;5044544;28;20029;-68
2022/08/14 00:44:22;;;;;;;21.23;11.77;;;;;;;18.64;76.79;100938.53;5045405;28;20053;-66
2022/08/14 00:46:48;;;;;;;21.63;11.63;;;;;;;18.53;77.06;100929.91;5042902;28;20096;-68
2022/08/14 00:49:14;;;;;;;21.95;11.43;;;;;;;18.45;76.87;100927.47;5046556;28;20063;-68
2022/08/14 00:51:40;;;;;;;22.08;12.30;;;;;;;18.40;77.11;100914.19;5043108;28;20540;-68
2022/08/14 00:54:07;;;;;;;21.30;11.63;;;;;;;18.36;78.07;100916.97;5045657;28;20039;-67
2022/08/14 00:56:32;;;;;;;23.42;12.18;;;;;;;18.24;77.65;100919.06;5044601;28;20087;-68
2022/08/14 00:58:58;;;;;;;22.63;12.27;;;;;;;18.17;77.75;100917.47;5044070;28;20029;-69
2022/08/14 01:01:24;;;;;;;22.27;11.88;;;;;;;18.16;77.76;100920.19;5045279;28;20048;-70
2022/08/14 01:03:52;;;;;;;22.92;12.20;;;;;;;18.09;78.45;100909.66;5042760;28;20511;-70
2022/08/14 01:06:17;;;;;;;22.92;12.40;;;;;;;18.02;78.71;100912.53;5045935;28;20029;-69
2022/08/14 01:08:43;;;;;;;22.33;12.77;;;;;;;17.92;78.68;100901.19;5041480;28;20113;-69
2022/08/14 01:11:14;;;;;;;21.60;13.00;;;;;;;17.92;79.34;100895.84;5045348;28;20016;-69
2022/08/14 01:13:41;;;;;;;22.83;13.18;;;;;;;17.97;79.27;100901.06;5042957;28;20025;-69
2022/08/14 01:16:10;;;;;;;21.80;13.32;;;;;;;17.90;78.83;100893.19;5044812;28;20060;-69
2022/08/14 01:21:23;;;;;;;22.27;13.88;;;;;;;17.82;79.05;100899.63;5039638;28;20530;-69
2022/08/14 01:23:55;;;;;;;23.27;14.45;;;;;;;17.75;79.30;100893.53;5045488;28;20392;-69
2022/08/14 01:26:22;;;;;;;22.90;13.43;;;;;;;17.73;79.79;100895.38;5042507;28;20037;-68
2022/08/14 01:28:51;;;;;;;22.27;13.93;;;;;;;17.70;79.96;100885.63;5045463;28;20032;-68
2022/08/14 01:31:17;;;;;;;23.67;14.07;;;;;;;17.62;80.06;100886.75;5040404;28;20029;-68
2022/08/14 01:33:46;;;;;;;22.63;13.82;;;;;;;17.58;80.84;100884.16;5038401;28;20053;-67
2022/08/14 01:36:15;;;;;;;23.65;13.88;;;;;;;17.63;79.79;100889.38;5045563;28;20436;-65
2022/08/14 01:38:42;;;;;;;22.85;13.20;;;;;;;17.62;79.79;100892.97;5042103;28;20055;-61
2022/08/14 01:41:13;;;;;;;21.60;12.73;;;;;;;17.46;80.56;100892.47;5045032;28;20043;-66
2022/08/14 01:43:58;;;;;;;22.23;12.85;;;;;;;17.34;80.90;100892.72;5042003;28;20053;-63
2022/08/14 01:46:24;;;;;;;22.75;12.60;;;;;;;17.36;81.35;100891.78;5040144;28;20365;-63
2022/08/14 01:48:51;;;;;;;21.27;12.52;;;;;;;17.32;81.41;100895.44;5045437;28;20094;-63
2022/08/14 01:51:21;;;;;;;21.75;12.88;;;;;;;17.41;81.15;100899.69;5041899;28;20025;-64
2022/08/14 01:53:54;;;;;;;21.77;12.38;;;;;;;17.33;81.04;100898.97;5038139;28;20469;-62
2022/08/14 01:56:20;;;;;;;21.88;12.73;;;;;;;17.37;81.23;100900.69;5039103;28;20036;-65
2022/08/14 01:58:48;;;;;;;21.45;12.45;;;;;;;17.32;81.24;100898.13;5045107;28;20357;-60
2022/08/14 02:01:18;;;;;;;22.02;12.90;;;;;;;17.27;81.99;100900.03;5037568;28;20067;-66
2022/08/14 02:03:45;;;;;;;21.92;13.70;;;;;;;17.30;81.96;100881.25;5038043;28;20384;-66
2022/08/14 02:06:12;;;;;;;23.17;12.88;;;;;;;17.19;82.11;100884.16;5044595;28;20456;-63
2022/08/14 02:08:39;;;;;;;22.52;13.18;;;;;;;17.13;82.70;100886.09;5041119;28;20368;-64
2022/08/14 02:11:16;;;;;;;21.30;13.23;;;;;;;17.17;82.29;100883.31;5043894;28;20026;-62
2022/08/14 02:13:42;;;;;;;22.25;13.10;;;;;;;17.13;82.30;100881.63;5041812;28;20025;-61
2022/08/14 02:16:28;;;;;;;22.15;13.07;;;;;;;17.01;83.01;100882.78;5043875;28;20139;-64
2022/08/14 02:18:57;;;;;;;22.13;12.73;;;;;;;16.99;82.86;100876.56;5039865;28;20029;-61
2022/08/14 02:21:24;;;;;;;21.95;12.90;;;;;;;16.95;82.94;100877.59;5043840;28;20527;-61
2022/08/14 02:23:51;;;;;;;22.02;12.48;;;;;;;16.93;83.30;100875.84;5041604;28;20032;-65
2022/08/14 02:26:26;;;;;;;23.92;14.40;;;;;;;16.88;83.20;100875.94;5044349;28;20025;-66
2022/08/14 02:28:55;;;;;;;22.67;12.98;;;;;;;16.72;84.12;100873.56;5038628;28;20108;-69
2022/08/14 02:31:20;;;;;;;22.20;13.10;;;;;;;16.66;84.61;100889.69;5044207;28;20021;-68
2022/08/14 02:33:47;;;;;;;23.05;13.68;;;;;;;16.69;84.23;100878.97;5041157;28;20463;-68
2022/08/14 02:36:13;;;;;;;23.15;13.57;;;;;;;16.67;84.51;100880.78;5044329;28;20272;-68
2022/08/14 02:38:39;;;;;;;24.98;16.02;;;;;;;16.60;85.39;100868.50;5040188;28;20041;-68
2022/08/14 02:41:08;;;;;;;24.42;15.82;;;;;;;16.63;86.03;100873.75;5042946;28;20160;-68
2022/08/14 02:43:33;;;;;;;25.13;17.05;;;;;;;16.66;85.54;100868.34;5041618;28;20056;-68
2022/08/14 02:45:59;;;;;;;24.38;16.67;;;;;;;16.70;85.04;100874.50;5042306;28;20485;-68
2022/08/14 02:48:30;;;;;;;25.33;17.25;;;;;;;16.51;85.60;100876.66;5043622;28;20035;-68
2022/08/14 02:50:57;;;;;;;26.05;18.52;;;;;;;16.43;86.82;100870.63;5041763;28;20025;-68
2022/08/14 02:53:22;;;;;;;25.08;17.73;;;;;;;16.34;87.25;100867.19;5043987;28;20025;-68
2022/08/14 02:55:47;;;;;;;26.40;18.75;;;;;;;16.31;88.66;100864.59;5040983;28;20052;-68
2022/08/14 02:58:13;;;;;;;25.58;18.85;;;;;;;16.26;90.09;100873.59;5044126;28;20029;-68
2022/08/14 03:00:38;;;;;;;26.55;18.90;;;;;;;16.27;90.46;100864.69;5041231;28;20033;-68
2022/08/14 03:03:04;;;;;;;27.02;17.83;;;;;;;16.25;91.21;100859.38;5043239;28;20109;-68
2022/08/14 03:05:30;;;;;;;26.75;18.05;;;;;;;16.29;90.85;100853.06;5042714;28;20032;-67
2022/08/14 03:08:07;;;;;;;25.30;17.33;;;;;;;16.18;90.50;100855.94;5041887;28;20108;-68
2022/08/14 03:10:32;;;;;;;25.20;17.92;;;;;;;16.17;91.10;100855.97;5042611;28;20037;-67
2022/08/14 03:12:57;;;;;;;26.20;18.60;;;;;;;16.10;92.01;100852.53;5041728;28;20032;-67
2022/08/14 03:15:23;;;;;;;26.95;18.90;;;;;;;16.09;92.76;100848.13;5043270;28;20062;-68
2022/08/14 03:17:51;;;;;;;26.30;18.92;;;;;;;16.11;93.41;100850.75;5040950;28;20056;-68
2022/08/14 03:20:17;;;;;;;25.52;17.83;;;;;;;16.05;92.91;100849.09;5036787;28;20374;-67
2022/08/14 03:22:42;;;;;;;24.75;17.33;;;;;;;16.08;92.42;100851.69;5043771;28;20055;-67
2022/08/14 03:25:10;;;;;;;25.65;16.70;;;;;;;16.08;92.09;100850.81;5041290;28;20056;-66
2022/08/14 03:27:36;;;;;;;24.48;16.77;;;;;;;15.98;92.24;100847.44;5042939;28;20108;-67
2022/08/14 03:30:03;;;;;;;26.35;17.52;;;;;;;15.93;91.93;100841.28;5042060;28;20591;-66
2022/08/14 03:32:30;;;;;;;23.77;17.27;;;;;;;15.95;91.76;100845.69;5041760;28;20064;-67
2022/08/14 03:34:55;;;;;;;25.17;17.75;;;;;;;15.88;92.15;100841.38;5042791;28;20024;-66
2022/08/14 03:37:20;;;;;;;24.35;16.98;;;;;;;15.84;92.26;100842.34;5040409;28;20025;-66
2022/08/14 03:39:46;;;;;;;25.30;16.52;;;;;;;15.84;91.83;100835.25;5043990;28;20155;-66
2022/08/14 03:42:12;;;;;;;25.08;16.85;;;;;;;15.73;92.52;100830.94;5040791;28;20032;-66
2022/08/14 03:44:38;;;;;;;24.80;16.80;;;;;;;15.69;92.74;100828.34;5042592;28;20066;-65
2022/08/14 03:47:04;;;;;;;24.50;16.60;;;;;;;15.67;92.78;100832.81;5041815;28;20017;-66
2022/08/14 03:49:29;;;;;;;25.40;17.35;;;;;;;15.69;92.74;100831.00;5041411;28;20032;-66
2022/08/14 03:51:57;;;;;;;25.45;16.50;;;;;;;15.54;93.45;100833.94;5042858;28;20021;-66
2022/08/14 03:54:23;;;;;;;25.40;17.13;;;;;;;15.43;94.26;100844.75;5043726;28;20033;-66
2022/08/14 03:56:48;;;;;;;23.98;16.13;;;;;;;15.41;93.99;100840.38;5047165;28;20024;-67
2022/08/14 03:59:13;;;;;;;24.80;16.42;;;;;;;15.39;94.47;100842.16;5044398;28;20021;-67
2022/08/14 04:01:40;;;;;;;24.95;16.73;;;;;;;15.34;95.16;100840.44;5046311;28;20425;-67
2022/08/14 04:04:07;;;;;;;24.20;15.65;;;;;;;15.44;94.09;100835.00;5044761;28;20029;-66
2022/08/14 04:06:33;;;;;;;26.10;17.25;;;;;;;15.36;96.00;100831.56;5045412;28;20104;-65
2022/08/14 04:08:59;;;;;;;25.08;17.42;;;;;;;15.42;96.23;100831.44;5045443;28;20036;-67
2022/08/14 04:11:24;;;;;;;25.70;16.85;;;;;;;15.31;94.87;100829.84;5044367;28;20018;-66
2022/08/14 04:13:50;;;;;;;25.02;16.67;;;;;;;15.33;94.83;100832.47;5046933;28;20519;-65
2022/08/14 04:16:19;;;;;;;25.42;18.30;;;;;;;15.31;95.87;100824.50;5043418;28;20060;-66
2022/08/14 04:18:47;;;;;;;25.50;18.15;;;;;;;15.41;96.10;100832.38;5039516;28;20082;-66
2022/08/14 04:21:14;;;;;;;26.30;19.55;;;;;;;15.44;97.72;100830.53;5046445;28;20044;-66
2022/08/14 04:23:41;;;;;;;27.92;19.40;;;;;;;15.43;97.57;100827.91;5044132;28;20034;-65
2022/08/14 04:26:10;;;;;;;27.33;18.63;;;;;;;15.32;97.72;100831.59;5044133;28;20030;-61
2022/08/14 04:28:37;;;;;;;27.40;19.02;;;;;;;15.33;97.49;100825.38;5044735;28;20250;-62
2022/08/14 04:31:05;;;;;;;26.10;18.80;;;;;;;15.26;97.92;100821.06;5045357;28;20369;-62
2022/08/14 04:33:31;;;;;;;26.65;18.70;;;;;;;15.30;97.78;100819.22;5045386;28;20032;-60
2022/08/14 04:35:56;;;;;;;26.20;19.25;;;;;;;15.35;97.48;100814.72;5044015;28;20447;-61
2022/08/14 04:43:51;;;;;;;26.58;19.25;;;;;;;15.44;97.75;100803.03;5040034;28;20412;-64
2022/08/14 04:46:19;;;;;;;26.75;19.63;;;;;;;15.38;98.35;100808.44;5046659;28;20025;-61
2022/08/14 04:48:44;;;;;;;26.83;19.77;;;;;;;15.50;98.57;100806.44;5043131;28;20037;-61
2022/08/14 04:51:12;;;;;;;29.25;20.60;;;;;;;15.60;98.33;100809.84;5045706;28;20060;-61
2022/08/14 04:53:42;;;;;;;28.25;21.08;;;;;;;15.52;99.46;100799.34;5044027;28;20082;-63
2022/08/14 04:56:16;;;;;;;29.45;21.42;;;;;;;15.47;100.00;100794.97;5045297;28;20033;-64
2022/08/14 04:58:42;;;;;;;29.40;21.38;;;;;;;15.52;100.00;100794.00;5043030;28;20026;-60
2022/08/14 05:01:09;;;;;;;28.50;22.02;;;;;;;15.51;100.00;100800.22;5045065;28;20036;-61
2022/08/14 05:03:36;;;;;;;32.63;21.15;;;;;;;15.49;100.00;100790.50;5044117;28;20391;-62
2022/08/14 05:06:05;;;;;;;29.05;21.38;;;;;;;15.61;100.00;100782.31;5043657;28;20052;-62
2022/08/14 05:08:31;;;;;;;30.75;23.23;;;;;;;15.74;100.00;100788.31;5044579;28;20507;-62
2022/08/14 05:10:59;;;;;;;30.27;22.02;;;;;;;15.85;100.00;100789.00;5043143;28;20029;-61
2022/08/14 05:13:27;;;;;;;34.40;23.90;;;;;;;15.83;100.00;100795.28;5045375;28;20025;-65
2022/08/14 05:15:56;;;;;;;41.33;24.33;;;;;;;15.79;100.00;100801.56;5042866;28;20027;-63
2022/08/14 05:18:24;;;;;;;34.75;23.52;;;;;;;15.86;100.00;100797.91;5045848;28;20029;-66
2022/08/14 05:20:52;;;;;;;33.97;23.40;;;;;;;15.93;100.00;100801.31;5042570;28;20039;-66
2022/08/14 05:23:21;;;;;;;32.75;24.65;;;;;;;15.96;100.00;100794.16;5038488;28;20026;-67
2022/08/14 05:25:50;;;;;;;32.28;25.10;;;;;;;15.97;100.00;100795.00;5038481;28;20072;-66
2022/08/14 05:28:25;;;;;;;32.58;25.08;;;;;;;16.08;100.00;100794.84;5045756;28;20040;-66
2022/08/14 05:30:56;;;;;;;33.40;27.00;;;;;;;16.11;100.00;100789.44;5038978;28;20029;-66
2022/08/14 05:33:23;;;;;;;35.83;26.95;;;;;;;16.17;100.00;100786.63;5045885;28;20025;-64
2022/08/14 05:35:50;;;;;;;33.45;26.80;;;;;;;16.19;100.00;100793.72;5042353;28;20404;-62
2022/08/14 05:38:19;;;;;;;32.90;28.02;;;;;;;16.29;100.00;100788.19;5038031;28;20029;-62
2022/08/14 05:40:46;;;;;;;32.83;29.13;;;;;;;16.36;100.00;100796.00;5045291;28;20075;-62
2022/08/14 05:43:12;;;;;;;38.58;28.25;;;;;;;16.48;100.00;100799.34;5042087;28;20036;-64
2022/08/14 05:45:37;;;;;;;36.95;28.42;;;;;;;16.49;100.00;100790.44;5044368;28;20032;-61
2022/08/14 05:48:05;;;;;;;42.88;29.02;;;;;;;16.56;100.00;100792.06;5043590;28;20017;-62
2022/08/14 05:50:31;;;;;;;47.28;29.52;;;;;;;16.60;100.00;100791.09;5042959;28;20428;-66
2022/08/14 05:52:57;;;;;;;46.83;29.48;;;;;;;16.68;100.00;100778.44;5044502;28;20090;-65
2022/08/14 05:55:23;;;;;;;33.42;29.10;;;;;;;16.70;100.00;100778.41;5028433;28;20044;-65
2022/08/14 05:57:59;;;;;;;33.60;29.45;;;;;;;16.86;100.00;100785.19;5034557;28;20033;-61
2022/08/14 06:00:34;;;;;;;36.55;29.65;;;;;;;16.91;100.00;100787.78;5031808;28;20065;-60
2022/08/14 06:03:01;;;;;;;34.20;28.77;;;;;;;17.03;100.00;100784.81;5033079;28;20025;-59
2022/08/14 06:05:27;;;;;;;32.47;27.73;;;;;;;17.19;100.00;100787.13;5031461;28;20098;-61
2022/08/14 06:07:52;;;;;;;33.45;28.05;;;;;;;17.27;100.00;100785.16;5037726;28;20029;-62
2022/08/14 06:10:18;;;;;;;34.53;28.70;;;;;;;17.35;100.00;100776.94;5032489;28;20022;-64
2022/08/14 06:12:44;;;;;;;32.10;27.35;;;;;;;17.47;100.00;100786.44;5035337;28;20048;-60
2022/08/14 06:15:10;;;;;;;34.83;29.08;;;;;;;17.54;100.00;100782.72;5033904;28;20037;-61
2022/08/14 06:17:48;;;;;;;31.88;27.35;;;;;;;17.70;100.00;100777.84;5031214;28;20037;-60
2022/08/14 06:20:14;;;;;;;37.63;27.52;;;;;;;17.80;100.00;100779.34;5028955;28;20030;-59
2022/08/14 06:22:41;;;;;;;36.97;26.67;;;;;;;17.90;100.00;100785.38;5032959;28;20037;-60
2022/08/14 06:25:08;;;;;;;38.78;25.88;;;;;;;17.99;100.00;100779.75;5028116;28;20029;-59
2022/08/14 06:27:38;;;;;;;42.63;26.65;;;;;;;18.14;100.00;100780.25;5029579;28;20112;-60
2022/08/14 06:30:06;;;;;;;33.50;24.58;;;;;;;18.27;100.00;100779.84;5034638;28;20036;-60
2022/08/14 06:32:31;;;;;;;36.53;25.55;;;;;;;18.40;100.00;100775.03;5031740;28;20039;-62
2022/08/14 06:34:57;;;;;;;37.83;25.08;;;;;;;18.50;100.00;100772.09;5033680;28;20108;-60
2022/08/14 06:37:22;;;;;;;30.00;22.30;;;;;;;18.67;100.00;100764.44;5029748;28;20064;-60
2022/08/14 06:39:47;;;;;;;30.85;22.40;;;;;;;18.81;100.00;100772.94;5031186;28;20393;-63
2022/08/14 06:42:13;;;;;;;29.15;20.50;;;;;;;18.94;100.00;100770.75;5031331;28;20920;-61
2022/08/14 06:44:39;;;;;;;30.77;21.25;;;;;;;19.03;100.00;100769.56;5030503;28;20460;-71
2022/08/14 06:47:05;;;;;;;27.67;19.20;;;;;;;19.16;100.00;100768.28;5030377;28;20034;-68
2022/08/14 06:49:31;;;;;;;31.63;19.42;;;;;;;19.32;100.00;100765.06;5034178;28;20037;-66
2022/08/14 06:51:56;;;;;;;27.73;18.67;;;;;;;19.45;97.81;100766.41;5031011;28;20025;-72
2022/08/14 06:54:21;;;;;;;28.13;18.85;;;;;;;19.58;97.82;100760.66;5031220;28;20021;-71
2022/08/14 06:56:47;;;;;;;26.50;16.83;;;;;;;19.78;93.32;100763.53;5027836;28;20045;-74
2022/08/14 06:59:15;;;;;;;26.83;16.60;;;;;;;19.85;94.58;100765.06;5030377;28;20033;-74
2022/08/14 07:07:08;;;;;;;24.02;14.55;;;;;;;20.36;84.93;100765.03;5035713;28;20039;-59
2022/08/14 07:09:34;;;;;;;24.90;14.63;;;;;;;20.48;82.31;100756.50;5031416;28;20029;-65
2022/08/14 07:11:59;;;;;;;23.88;13.88;;;;;;;20.60;82.96;100757.84;5031897;28;20031;-64
2022/08/14 07:14:25;;;;;;;23.60;13.30;;;;;;;20.75;82.23;100750.16;5032526;28;20104;-60
2022/08/14 07:16:50;;;;;;;23.65;13.05;;;;;;;20.90;79.85;100749.56;5032191;28;20104;-60
2022/08/14 07:19:17;;;;;;;22.95;12.55;;;;;;;20.97;80.00;100750.16;5034300;28;20469;-61
2022/08/14 07:21:42;;;;;;;21.27;12.13;;;;;;;21.03;76.88;100755.31;5030365;28;20030;-60
2022/08/14 07:24:07;;;;;;;21.92;11.43;;;;;;;21.16;76.90;100750.28;5032395;28;20035;-63
2022/08/14 07:26:33;;;;;;;21.42;10.93;;;;;;;21.48;73.87;100748.06;5030287;28;20032;-60
2022/08/14 07:28:58;;;;;;;20.88;11.25;;;;;;;21.56;72.25;100752.19;5037209;28;20404;-61
2022/08/14 07:31:23;;;;;;;21.08;10.75;;;;;;;21.62;72.76;100750.19;5033323;28;20030;-61
2022/08/14 07:33:49;;;;;;;21.25;11.10;;;;;;;21.70;72.22;100748.94;5037921;28;20377;-61
2022/08/14 07:36:17;;;;;;;22.45;10.73;;;;;;;21.77;69.04;100750.41;5033404;28;20105;-64
2022/08/14 07:38:42;;;;;;;21.13;10.57;;;;;;;21.84;69.68;100745.63;5036410;28;20032;-67
2022/08/14 07:41:11;;;;;;;21.55;10.85;;;;;;;21.96;69.84;100754.09;5034410;28;20025;-66
2022/08/14 07:43:37;;;;;;;20.83;10.57;;;;;;;22.15;66.69;100752.34;5038881;28;20507;-66
2022/08/14 07:46:03;;;;;;;21.33;10.20;;;;;;;;;;5039896;28;20026;-66
2022/08/14 07:48:29;;;;;;;21.48;10.30;;;;;;;22.45;66.52;100739.31;5047267;28;20021;-66
2022/08/14 07:50:54;;;;;;;20.58;10.10;;;;;;;22.54;65.62;100742.50;5044236;28;20025;-66
2022/08/14 07:53:20;;;;;;;20.40;10.30;;;;;;;22.58;64.82;100744.97;5046676;28;20017;-66
2022/08/14 07:55:47;;;;;;;20.73;10.10;;;;;;;22.59;64.28;100746.72;5045282;28;20447;-66
2022/08/14 07:58:13;;;;;;;20.33;9.75;;;;;;;22.78;62.74;100752.09;5045718;28;20195;-66
2022/08/14 08:00:39;;;;;;;20.42;10.27;;;;;;;22.85;63.03;100750.00;5045991;28;20028;-67
2022/08/14 08:03:10;;;;;;;19.70;9.63;;;;;;;22.90;62.32;100739.84;5044569;28;20029;-67
2022/08/14 08:05:40;;;;;;;20.98;9.88;;;;;;;23.02;61.93;100756.38;5046471;28;20051;-67
2022/08/14 08:08:07;;;;;;;22.10;10.23;;;;;;;23.08;60.88;100756.06;5044500;28;20144;-66
2022/08/14 08:10:33;;;;;;;20.95;9.38;;;;;;;23.14;62.26;100755.81;5046810;28;20029;-66
2022/08/14 08:13:07;;;;;;;20.52;9.40;;;;;;;23.37;59.28;100746.53;5043723;28;20029;-63
2022/08/14 08:15:38;;;;;;;20.58;9.02;;;;;;;23.60;57.92;100750.75;5040946;28;20113;-63
2022/08/14 08:18:06;;;;;;;19.83;9.55;;;;;;;23.85;56.59;100744.09;5046257;28;20021;-66
2022/08/14 08:20:33;;;;;;;20.13;8.90;;;;;;;24.37;55.70;100743.13;5043955;28;20041;-66
2022/08/14 08:23:00;;;;;;;19.23;8.98;;;;;;;25.19;51.45;100734.03;5046997;28;20104;-66
2022/08/14 08:25:29;;;;;;;19.63;8.32;;;;;;;26.10;48.08;100730.44;5039519;28;20384;-67
2022/08/14 08:27:59;;;;;;;18.35;8.60;;;;;;;26.96;45.22;100724.03;5047182;28;20078;-67
2022/08/14 08:30:27;;;;;;;19.75;8.50;;;;;;;27.65;43.14;100721.22;5043582;28;20022;-68
2022/08/14 08:32:54;;;;;;;18.80;8.85;;;;;;;28.25;41.62;100725.16;5046221;28;20029;-67
2022/08/14 08:35:22;;;;;;;20.33;8.68;;;;;;;28.82;42.34;100720.13;5043912;28;20029;-67
2022/08/14 08:37:49;;;;;;;20.50;9.18;;;;;;;29.27;40.88;100724.97;5045841;28;20021;-68
2022/08/14 08:40:25;;;;;;;19.92;8.45;;;;;;;29.71;40.68;100731.59;5043411;28;20060;-68
2022/08/14 08:42:51;;;;;;;19.45;8.30;;;;;;;30.07;38.59;100732.41;5046111;28;20056;-67
2022/08/14 08:45:17;;;;;;;20.20;8.43;;;;;;;30.11;37.72;100733.03;5044022;28;20073;-65
2022/08/14 08:47:44;;;;;;;19.48;8.18;;;;;;;30.48;36.72;100730.97;5044716;28;20052;-67
2022/08/14 08:50:18;;;;;;;18.20;8.02;;;;;;;30.86;36.83;100728.75;5045398;28;20116;-70
2022/08/14 08:52:52;;;;;;;18.35;8.20;;;;;;;31.27;35.67;100732.66;5044991;28;20028;-70
2022/08/14 08:55:39;;;;;;;18.98;7.88;;;;;;;31.81;36.35;100728.03;5044071;28;20025;-69
2022/08/14 08:58:07;;;;;;;19.35;7.90;;;;;;;32.14;33.61;100726.09;5040478;28;20484;-69
2022/08/14 09:00:35;;;;;;;18.73;8.10;;;;;;;32.39;33.42;100724.78;5046111;28;20037;-70
2022/08/14 09:03:08;;;;;;;19.13;8.35;;;;;;;32.90;32.43;100733.88;5042824;28;20028;-70
2022/08/14 09:05:37;;;;;;;19.73;8.32;;;;;;;33.23;31.55;100729.00;5045727;28;20028;-69
2022/08/14 09:08:15;;;;;;;17.55;7.93;;;;;;;33.51;32.52;100732.75;5043082;28;20087;-69
2022/08/14 09:10:41;;;;;;;18.63;7.60;;;;;;;33.84;30.67;100721.47;5045095;28;20021;-69
2022/08/14 09:13:06;;;;;;;19.27;7.93;;;;;;;33.96;29.61;100713.94;5043127;28;20538;-68
2022/08/14 09:15:32;;;;;;;17.50;7.47;;;;;;;33.72;29.42;100707.06;5043120;28;20021;-69
2022/08/14 09:17:58;;;;;;;19.65;7.85;;;;;;;32.80;31.07;100719.31;5043915;28;20028;-69
2022/08/14 09:20:24;;;;;;;18.48;7.53;;;;;;;31.81;32.22;100708.91;5043653;28;20055;-69
2022/08/14 09:22:50;;;;;;;18.65;7.70;;;;;;;31.51;33.02;100696.88;5045005;28;20029;-69
2022/08/14 09:25:16;;;;;;;18.42;7.55;;;;;;;31.92;32.41;100705.22;5041867;28;20108;-69
2022/08/14 09:27:42;;;;;;;16.83;7.20;;;;;;;32.85;30.72;100703.31;5045532;28;20021;-70
2022/08/14 09:30:08;;;;;;;18.02;7.60;;;;;;;33.85;29.31;100691.19;5042582;28;20325;-69
2022/08/14 09:33:02;;;;;;;18.30;7.45;;;;;;;34.81;29.80;100702.94;5043205;28;20392;-61
2022/08/14 09:35:46;;;;;;;19.67;7.82;;;;;;;34.96;27.43;100704.09;5041870;28;20397;-67
2022/08/14 09:38:56;;;;;;;19.05;7.30;;;;;;;35.26;28.37;100704.72;5038582;28;20036;-65
2022/08/14 09:41:47;;;;;;;19.08;7.47;;;;;;;35.91;27.41;100692.53;5041172;28;20033;-67
2022/08/14 09:44:31;;;;;;;19.05;7.35;;;;;;;36.29;26.83;100699.50;5038292;28;20104;-66
2022/08/14 09:46:56;;;;;;;17.35;7.45;;;;;;;36.49;25.04;100682.69;5041685;28;20108;-67
2022/08/14 09:49:33;;;;;;;18.40;7.30;;;;;;;37.17;25.29;100678.91;5044697;28;20031;-67
2022/08/14 09:52:09;;;;;;;20.77;7.38;;;;;;;37.46;24.96;100673.94;5043680;28;20036;-67
2022/08/14 09:54:39;;;;;;;17.63;7.38;;;;;;;37.62;23.72;100675.81;5042390;28;20405;-67
2022/08/14 09:57:05;;;;;;;18.15;7.60;;;;;;;37.66;24.08;100669.78;5044178;28;20068;-67
2022/08/14 09:59:39;;;;;;;17.98;7.70;;;;;;;37.27;24.96;100664.16;5042977;28;20530;-67
2022/08/14 10:02:21;;;;;;;16.63;6.72;;;;;;;37.67;24.58;100674.25;5044659;28;20506;-67
2022/08/14 10:04:57;;;;;;;18.13;7.05;;;;;;;38.16;22.68;100662.22;5038829;28;20025;-67
2022/08/14 10:07:30;;;;;;;18.48;7.30;;;;;;;38.19;23.26;100664.66;5043822;28;20037;-67
2022/08/14 10:09:55;;;;;;;18.88;7.30;;;;;;;39.11;22.43;100652.03;5042771;28;20030;-65
2022/08/14 10:12:21;;;;;;;18.55;7.25;;;;;;;39.95;21.65;100652.97;5044385;28;20075;-67
2022/08/14 10:14:46;;;;;;;20.08;7.18;;;;;;;40.29;21.73;100649.63;5041629;28;20148;-67
2022/08/14 10:17:25;;;;;;;18.07;6.97;;;;;;;40.54;21.31;100652.94;5044994;28;20025;-67
2022/08/14 10:19:51;;;;;;;17.35;7.07;;;;;;;39.99;21.70;100655.19;5039854;28;20359;-67
2022/08/14 10:22:28;;;;;;;19.42;7.28;;;;;;;39.18;23.01;100647.53;5044359;28;20120;-67
2022/08/14 10:24:54;;;;;;;16.95;6.80;;;;;;;39.29;22.44;100639.81;5042701;28;20108;-68
2022/08/14 10:27:24;;;;;;;18.30;7.10;;;;;;;39.58;21.72;100639.03;5043725;28;20113;-65
2022/08/14 10:29:53;;;;;;;19.17;6.90;;;;;;;39.86;20.83;100649.44;5041726;28;20060;-63
2022/08/14 10:32:21;;;;;;;16.45;6.15;;;;;;;40.06;20.64;100636.81;5044303;28;20419;-67
2022/08/14 10:34:47;;;;;;;16.58;6.70;;;;;;;40.35;20.25;100632.25;5041454;28;20108;-69
2022/08/14 10:37:15;;;;;;;16.83;6.30;;;;;;;40.65;19.79;100626.66;5044326;28;20082;-68
2022/08/14 10:39:43;;;;;;;14.00;6.05;;;;;;;39.83;20.69;100630.47;5037389;28;20114;-70
2022/08/14 10:42:11;;;;;;;17.45;6.45;;;;;;;39.92;20.48;100621.91;5044203;28;20040;-69
2022/08/14 10:44:40;;;;;;;16.50;6.30;;;;;;;40.50;19.63;100615.66;5041129;28;20033;-69
2022/08/14 10:47:09;;;;;;;15.02;6.20;;;;;;;41.41;19.08;100605.88;5043796;28;20079;-70
2022/08/14 10:49:42;;;;;;;13.82;5.75;;;;;;;41.85;18.14;100609.34;5041489;28;20025;-69
2022/08/14 10:52:11;;;;;;;16.75;6.30;;;;;;;42.99;17.79;100605.88;5044136;28;20024;-70
2022/08/14 10:54:43;;;;;;;13.48;5.80;;;;;;;43.59;16.83;100605.03;5041234;28;20032;-71
2022/08/14 10:57:20;;;;;;;14.90;5.80;;;;;;;43.51;17.04;100602.47;5042789;28;20429;-69
2022/08/14 10:59:51;;;;;;;13.40;5.28;;;;;;;43.04;16.38;100607.22;5037648;28;20057;-70
2022/08/14 11:02:36;;;;;;;14.52;5.70;;;;;;;42.84;17.12;100599.66;5043444;28;20029;-69
2022/08/14 11:05:17;;;;;;;13.45;5.13;;;;;;;43.63;16.33;100600.75;5042874;28;20025;-69
2022/08/14 11:08:02;;;;;;;;;;;;;;;44.20;16.16;100595.41;5037490;28;20034;-69
2022/08/14 11:10:41;;;;;;;12.27;5.40;;;;;;;43.60;17.25;100590.03;5040173;28;19978;-70
2022/08/14 11:13:08;;;;;;;16.70;6.10;;;;;;;43.29;16.89;100596.28;5040912;28;20503;-70
2022/08/14 11:15:34;;;;;;;16.08;5.47;;;;;;;42.36;16.67;100597.00;5043511;28;20046;-70
2022/08/14 11:18:00;;;;;;;14.07;5.40;;;;;;;41.48;18.04;100587.34;5041880;28;20040;-69
2022/08/14 11:20:29;;;;;;;13.82;5.22;;;;;;;41.80;17.23;100585.00;5041991;28;20030;-70
2022/08/14 11:22:59;;;;;;;11.32;5.07;;;;;;;42.35;16.16;100593.38;5042848;28;20017;-70
2022/08/14 11:25:29;;;;;;;15.97;5.40;;;;;;;42.20;16.70;100585.19;5042121;28;20032;-70
2022/08/14 11:27:56;;;;;;;15.63;5.40;;;;;;;42.19;16.75;100594.59;5042983;28;20021;-65
2022/08/14 11:30:24;;;;;;;21.65;5.85;;;;;;;42.69;17.20;100580.44;5041432;28;20748;-63